Time;durP1;ratioP1;P1;durP2;ratioP2;P2;SDS_P1;SDS_P2;PMS_P1;PMS_P2;Temp;Humidity;BMP_temperature;BMP_pressure;BME280_temperature;BME280_humidity;BME280_pressure;Samples;Min_cycle;Max_cycle;Signal;HPM_P1;HPM_P2
2022/01/11 00:00:53;;;;;;;40.15;32.38;;;;;;;-0.29;100.00;103057.06;5210722;28;20025;-85
2022/01/11 00:03:24;;;;;;;40.45;36.17;;;;;;;-0.28;100.00;103061.38;5209329;28;20052;-86
2022/01/11 00:06:02;;;;;;;46.40;39.17;;;;;;;-0.23;100.00;103074.25;5210842;28;20021;-86
2022/01/11 00:08:34;;;;;;;43.67;38.20;;;;;;;-0.16;100.00;103109.94;5210770;28;20025;-86
2022/01/11 00:11:04;;;;;;;41.33;37.25;;;;;;;-0.18;100.00;103066.75;5213843;28;20017;-85
2022/01/11 00:13:38;;;;;;;42.03;37.92;;;;;;;-0.18;100.00;103075.56;5214410;28;20226;-85
2022/01/11 00:16:13;;;;;;;43.95;39.05;;;;;;;-0.36;100.00;103042.63;5214668;28;20131;-85
2022/01/11 00:18:43;;;;;;;43.50;38.90;;;;;;;-1.63;100.00;102845.66;5215080;28;20021;-84
2022/01/11 00:21:14;;;;;;;44.03;39.47;;;;;;;-0.15;100.00;103067.34;5213751;28;20026;-85
2022/01/11 00:26:17;;;;;;;43.95;37.25;;;;;;;-1.02;100.00;102928.81;5215143;28;20056;-83
2022/01/11 00:28:48;;;;;;;45.40;40.80;;;;;;;-0.36;100.00;103035.50;5217103;28;20025;-84
2022/01/11 00:31:19;;;;;;;45.72;41.15;;;;;;;-0.54;100.00;102999.06;5215005;28;20056;-85
2022/01/11 00:33:51;;;;;;;42.88;38.47;;;;;;;-0.30;100.00;103049.22;5213372;28;20021;-85
2022/01/11 00:36:21;;;;;;;40.80;36.67;;;;;;;-0.17;100.00;103069.28;5213588;28;20438;-85
2022/01/11 00:38:52;;;;;;;45.70;38.10;;;;;;;-0.78;100.00;102992.22;5213878;28;20029;-85
2022/01/11 00:41:22;;;;;;;40.80;37.03;;;;;;;-0.76;100.00;102969.06;5214548;28;20502;-85
2022/01/11 00:43:52;;;;;;;40.15;35.22;;;;;;;-0.75;100.00;102999.91;5213127;28;20120;-82
2022/01/11 00:46:23;;;;;;;45.40;40.63;;;;;;;-0.32;100.00;103053.81;5214407;28;20021;-84
2022/01/11 00:48:53;;;;;;;39.80;35.90;;;;;;;-0.92;100.00;102970.50;5213993;28;20392;-86
2022/01/11 00:51:24;;;;;;;41.03;34.20;;;;;;;-0.56;100.00;103036.34;5214144;28;20043;-85
2022/01/11 00:53:55;;;;;;;39.72;35.95;;;;;;;-0.63;100.00;103027.22;5214005;28;20025;-85
2022/01/11 00:56:25;;;;;;;39.30;35.33;;;;;;;-0.94;100.00;102994.47;5212888;28;20168;-83
2022/01/11 00:58:56;;;;;;;41.33;36.90;;;;;;;-0.82;100.00;103006.69;5213958;28;20032;-85
2022/01/11 01:01:27;;;;;;;42.03;37.33;;;;;;;-0.63;100.00;103058.22;5213842;28;20030;-85
2022/01/11 01:03:57;;;;;;;37.80;33.78;;;;;;;-0.93;100.00;102995.31;5212785;28;20072;-85
2022/01/11 01:06:28;;;;;;;42.88;37.75;;;;;;;-1.00;100.00;102967.63;5213127;28;20029;-83
2022/01/11 01:08:59;;;;;;;50.05;38.65;;;;;;;-0.47;100.00;103080.69;5213422;28;20033;-84
2022/01/11 01:11:29;;;;;;;39.92;36.05;;;;;;;-0.50;100.00;103080.09;5213770;28;20024;-86
2022/01/11 01:14:00;;;;;;;41.08;36.85;;;;;;;-1.54;100.00;102920.88;5213549;28;20021;-85
2022/01/11 01:16:31;;;;;;;43.80;36.17;;;;;;;-1.42;100.00;102955.16;5212505;28;20021;-84
2022/01/11 01:19:01;;;;;;;43.92;39.30;;;;;;;-0.86;100.00;103042.41;5213803;28;20025;-85
2022/01/11 01:21:37;;;;;;;43.92;36.58;;;;;;;-1.29;100.00;102972.69;5212888;28;20147;-85
2022/01/11 01:24:10;;;;;;;41.17;34.88;;;;;;;-0.79;100.00;103046.22;5211703;28;20395;-85
2022/01/11 01:26:41;;;;;;;39.78;35.65;;;;;;;-1.03;100.00;103019.94;5213515;28;20033;-85
2022/01/11 01:29:11;;;;;;;42.17;38.15;;;;;;;-1.45;100.00;102928.94;5213470;28;20029;-83
2022/01/11 01:31:41;;;;;;;37.30;33.47;;;;;;;-1.16;100.00;102970.72;5213210;28;20018;-84
2022/01/11 01:34:12;;;;;;;40.95;33.35;;;;;;;-1.27;100.00;102965.47;5212926;28;20057;-85
2022/01/11 01:36:43;;;;;;;37.85;34.00;;;;;;;-0.88;100.00;103032.91;5211912;28;20028;-85
2022/01/11 01:39:13;;;;;;;39.60;35.67;;;;;;;-1.13;100.00;102997.81;5212129;28;20029;-85
2022/01/11 01:41:46;;;;;;;37.38;33.75;;;;;;;-1.27;100.00;103013.19;5212569;28;20109;-83
2022/01/11 01:44:17;;;;;;;41.85;34.28;;;;;;;-1.12;100.00;103003.94;5213263;28;20036;-86
2022/01/11 01:46:47;;;;;;;41.10;36.25;;;;;;;-0.63;100.00;103085.59;5211803;28;20487;-85
2022/01/11 01:49:21;;;;;;;38.78;34.55;;;;;;;-0.52;100.00;103104.09;5212803;28;20040;-85
2022/01/11 01:51:52;;;;;;;41.85;34.38;;;;;;;-0.65;100.00;103102.63;5213005;28;20036;-85
2022/01/11 01:54:23;;;;;;;45.33;36.10;;;;;;;-1.17;100.00;103007.00;5210851;28;20148;-85
2022/01/11 01:56:54;;;;;;;39.85;35.58;;;;;;;-0.68;100.00;103104.56;5212898;28;20049;-86
2022/01/11 01:59:24;;;;;;;36.25;32.25;;;;;;;-1.04;100.00;103054.53;5211360;28;20017;-85
2022/01/11 02:01:56;;;;;;;35.63;32.08;;;;;;;-0.81;100.00;103100.38;5211095;28;20412;-84
2022/01/11 02:04:26;;;;;;;37.15;33.00;;;;;;;-0.83;100.00;103105.81;5211129;28;20022;-85
2022/01/11 02:06:57;;;;;;;36.60;33.25;;;;;;;-0.99;100.00;103086.00;5211740;28;20041;-85
2022/01/11 02:09:27;;;;;;;34.42;30.52;;;;;;;-1.16;100.00;103074.13;5211246;28;20025;-85
2022/01/11 02:11:57;;;;;;;38.17;34.28;;;;;;;-0.97;100.00;103111.41;5211262;28;20029;-84
2022/01/11 02:14:28;;;;;;;41.35;37.50;;;;;;;-1.11;100.00;103114.34;5212249;28;20111;-85
2022/01/11 02:17:00;;;;;;;37.28;33.83;;;;;;;-1.63;100.00;103020.50;5212574;28;20025;-85
2022/01/11 02:19:31;;;;;;;38.30;34.53;;;;;;;-1.13;100.00;103105.66;5211191;28;20028;-84
2022/01/11 02:22:01;;;;;;;36.72;33.55;;;;;;;-1.12;100.00;103123.25;5211404;28;20021;-85
2022/01/11 02:24:33;;;;;;;36.25;32.45;;;;;;;-1.93;100.00;102991.16;5212494;28;20036;-85
2022/01/11 02:27:04;;;;;;;38.97;35.17;;;;;;;-1.54;100.00;103045.41;5212651;28;20036;-85
2022/01/11 02:29:35;;;;;;;36.30;32.72;;;;;;;-1.52;100.00;103064.69;5212819;28;20025;-82
2022/01/11 02:32:06;;;;;;;36.00;32.55;;;;;;;-1.83;100.00;103029.19;5211578;28;20112;-85
2022/01/11 02:34:37;;;;;;;37.38;33.72;;;;;;;-1.74;100.00;103028.47;5211179;28;20116;-85
2022/01/11 02:37:07;;;;;;;40.00;35.88;;;;;;;-1.32;100.00;103108.13;5212544;28;20048;-84
2022/01/11 02:39:38;;;;;;;39.72;35.90;;;;;;;-1.54;100.00;103083.34;5211157;28;20048;-84
2022/01/11 02:42:08;;;;;;;35.75;31.80;;;;;;;-1.22;100.00;103130.28;5211283;28;20029;-85
2022/01/11 02:44:39;;;;;;;36.00;31.30;;;;;;;-1.14;100.00;103143.75;5210747;28;20017;-85
2022/01/11 02:47:09;;;;;;;36.25;32.35;;;;;;;-1.29;100.00;103131.72;5210970;28;20495;-82
2022/01/11 02:49:40;;;;;;;38.67;34.35;;;;;;;-1.42;100.00;103111.50;5210828;28;20033;-84
2022/01/11 02:52:10;;;;;;;34.75;30.92;;;;;;;-1.46;100.00;103107.44;5212478;28;20021;-85
2022/01/11 02:54:40;;;;;;;36.55;33.00;;;;;;;-1.42;100.00;103108.84;5210518;28;20099;-85
2022/01/11 02:57:11;;;;;;;33.60;30.52;;;;;;;-1.42;100.00;103111.50;5210961;28;20052;-85
2022/01/11 02:59:41;;;;;;;34.15;30.75;;;;;;;-1.14;100.00;103149.88;5210926;28;20083;-85
2022/01/11 03:02:12;;;;;;;38.42;34.30;;;;;;;-1.13;100.00;103162.19;5211018;28;20105;-85
2022/01/11 03:04:44;;;;;;;36.53;32.47;;;;;;;-1.14;100.00;103157.84;5210450;28;20033;-83
2022/01/11 03:07:22;;;;;;;36.15;32.75;;;;;;;-1.22;100.00;103132.94;5210960;28;20145;-85
2022/01/11 03:12:26;;;;;;;37.63;33.63;;;;;;;-1.29;100.00;103134.38;5212961;28;20095;-85
2022/01/11 03:14:56;;;;;;;35.40;30.85;;;;;;;-1.31;100.00;103138.97;5211123;28;20018;-85
2022/01/11 03:17:27;;;;;;;35.65;29.67;;;;;;;-1.20;100.00;103149.56;5214301;28;20055;-84
2022/01/11 03:19:57;;;;;;;36.03;30.60;;;;;;;-1.25;100.00;103162.34;5215912;28;20036;-81
2022/01/11 03:22:28;;;;;;;37.67;33.08;;;;;;;-2.38;100.00;102964.72;5215912;28;20033;-81
2022/01/11 03:27:32;;;;;;;34.10;30.80;;;;;;;-1.54;100.00;103115.13;5259739;28;20409;-87
2022/01/11 03:30:03;;;;;;;31.27;28.23;;;;;;;-1.88;100.00;103057.84;5268129;28;20020;-86
2022/01/11 03:32:33;;;;;;;31.60;28.45;;;;;;;-1.53;100.00;103119.47;5251836;28;20501;-87
2022/01/11 03:35:06;;;;;;;31.52;25.52;;;;;;;-2.16;100.00;103017.66;5253216;28;20023;-87
2022/01/11 03:37:39;;;;;;;31.95;28.67;;;;;;;-1.46;100.00;103160.44;5253370;28;20078;-87
2022/01/11 03:40:12;;;;;;;38.65;28.48;;;;;;;-2.14;100.00;103022.81;5253056;28;20020;-87
2022/01/11 03:42:43;;;;;;;30.85;27.73;;;;;;;-1.80;100.00;103101.31;5253131;28;20035;-86
2022/01/11 03:45:15;;;;;;;35.42;28.00;;;;;;;-1.82;100.00;103111.16;5251341;28;20084;-86
2022/01/11 03:47:46;;;;;;;33.40;30.17;;;;;;;-2.34;100.00;103028.84;5253370;28;20016;-87
2022/01/11 03:50:17;;;;;;;33.47;30.15;;;;;;;-1.88;100.00;103095.75;5252425;28;20017;-85
2022/01/11 03:52:55;;;;;;;31.13;28.38;;;;;;;-1.71;100.00;103131.50;5253127;28;20029;-85
2022/01/11 03:58:26;;;;;;;33.72;28.05;;;;;;;-2.18;100.00;103079.59;5238168;28;20131;-85
2022/01/11 04:00:57;;;;;;;33.78;30.45;;;;;;;-1.69;100.00;103153.41;5253520;28;20025;-85
2022/01/11 04:03:28;;;;;;;33.50;30.38;;;;;;;-2.11;100.00;103086.97;5253986;28;20044;-85
2022/01/11 04:05:58;;;;;;;33.45;29.65;;;;;;;-1.69;100.00;103166.66;5252602;28;20078;-85
2022/01/11 04:08:28;;;;;;;30.05;27.13;;;;;;;-2.14;100.00;103111.00;5253773;28;20031;-85
2022/01/11 04:10:59;;;;;;;39.08;35.65;;;;;;;-2.19;100.00;103093.78;5253404;28;20095;-85
2022/01/11 04:13:29;;;;;;;29.88;27.00;;;;;;;-2.37;100.00;103061.66;5252393;28;20055;-87
2022/01/11 04:16:00;;;;;;;30.60;27.95;;;;;;;-1.75;100.00;103160.06;5253294;28;20107;-85
2022/01/11 04:18:30;;;;;;;33.05;29.70;;;;;;;-2.00;100.00;103127.63;5253156;28;20486;-85
2022/01/11 04:21:02;;;;;;;29.52;26.67;;;;;;;-1.91;100.00;103158.69;5252338;28;20033;-87
2022/01/11 04:23:34;;;;;;;30.48;27.58;;;;;;;-2.08;100.00;103121.13;5251345;28;20129;-88
2022/01/11 04:26:05;;;;;;;33.55;30.50;;;;;;;-1.76;100.00;103170.78;5252022;28;20074;-86
2022/01/11 04:28:36;;;;;;;32.45;29.40;;;;;;;-2.39;100.00;103061.78;5252773;28;20107;-86
2022/01/11 04:31:06;;;;;;;31.60;28.27;;;;;;;-2.01;100.00;103129.44;5253220;28;20021;-86
2022/01/11 04:33:42;;;;;;;27.45;24.85;;;;;;;-1.92;100.00;103131.38;5251657;28;20028;-86
2022/01/11 04:36:13;;;;;;;29.35;26.48;;;;;;;-2.34;100.00;103079.94;5253319;28;20021;-86
2022/01/11 04:38:44;;;;;;;34.03;30.48;;;;;;;-2.01;100.00;103121.47;5251790;28;20051;-86
2022/01/11 04:41:14;;;;;;;29.90;27.30;;;;;;;-2.25;100.00;103092.44;5252928;28;20029;-86
2022/01/11 04:43:45;;;;;;;34.60;30.23;;;;;;;-2.30;100.00;103072.59;5252763;28;20036;-86
2022/01/11 04:46:18;;;;;;;31.08;27.90;;;;;;;-2.06;100.00;103105.97;5252638;28;20021;-86
2022/01/11 04:48:49;;;;;;;27.27;24.60;;;;;;;-1.90;100.00;103128.59;5253257;28;20493;-86
2022/01/11 04:51:20;;;;;;;32.95;24.70;;;;;;;-1.87;100.00;103147.75;5252034;28;20082;-86
2022/01/11 04:53:51;;;;;;;34.65;28.13;;;;;;;-1.96;100.00;103134.38;5253616;28;20107;-86
2022/01/11 04:56:22;;;;;;;32.28;28.02;;;;;;;-1.81;100.00;103152.59;5256238;28;20043;-86
2022/01/11 04:58:53;;;;;;;40.17;27.73;;;;;;;-2.22;100.00;103099.31;5257081;28;20124;-86
2022/01/11 05:01:23;;;;;;;33.97;30.48;;;;;;;-1.75;100.00;103159.22;5256314;28;20448;-85
2022/01/11 05:03:54;;;;;;;29.65;26.73;;;;;;;-2.36;100.00;103060.69;5256589;28;20077;-86
2022/01/11 05:06:24;;;;;;;27.25;24.42;;;;;;;-2.24;100.00;103080.91;5255633;28;20089;-86
2022/01/11 05:08:55;;;;;;;30.40;27.77;;;;;;;-1.79;100.00;103141.88;5256195;28;20025;-86
2022/01/11 05:11:25;;;;;;;37.17;32.03;;;;;;;-1.65;100.00;103157.50;5257770;28;20076;-86
2022/01/11 05:13:55;;;;;;;29.27;26.67;;;;;;;-1.66;100.00;103145.22;5256516;28;20123;-86
2022/01/11 05:16:26;;;;;;;29.08;26.05;;;;;;;-2.32;100.00;103043.63;5256458;28;20088;-85
2022/01/11 05:18:56;;;;;;;30.85;27.58;;;;;;;-1.82;100.00;103123.56;5255990;28;20069;-86
2022/01/11 05:21:27;;;;;;;26.35;24.08;;;;;;;-1.85;100.00;103113.22;5257304;28;20036;-86
2022/01/11 05:23:57;;;;;;;28.77;26.02;;;;;;;-1.78;100.00;103127.66;5257240;28;20389;-86
2022/01/11 05:26:27;;;;;;;27.88;24.95;;;;;;;-1.55;100.00;103155.00;5257879;28;20039;-87
2022/01/11 05:28:58;;;;;;;30.30;24.58;;;;;;;-2.01;100.00;103084.41;5256468;28;20056;-86
2022/01/11 05:31:29;;;;;;;30.38;27.55;;;;;;;-1.89;100.00;103111.75;5257027;28;20023;-85
2022/01/11 05:34:00;;;;;;;27.15;24.58;;;;;;;-2.08;100.00;103084.06;5255826;28;20027;-88
2022/01/11 05:36:30;;;;;;;25.95;23.42;;;;;;;-2.06;100.00;103082.16;5250102;28;20028;-88
2022/01/11 05:39:04;;;;;;;27.55;23.02;;;;;;;-1.78;100.00;103143.56;5257173;28;20033;-87
2022/01/11 05:41:34;;;;;;;27.73;22.88;;;;;;;-1.82;100.00;103140.31;5256238;28;20115;-88
2022/01/11 05:44:05;;;;;;;29.67;26.40;;;;;;;-1.81;100.00;103151.75;5255119;28;20104;-87
2022/01/11 05:46:35;;;;;;;29.45;25.58;;;;;;;-1.91;100.00;103146.31;5255235;28;20025;-88
2022/01/11 05:49:06;;;;;;;29.75;24.27;;;;;;;-2.19;100.00;103107.03;5255449;28;20050;-87
2022/01/11 05:51:36;;;;;;;25.70;23.25;;;;;;;-1.83;100.00;103178.34;5253951;28;20040;-88
2022/01/11 05:54:07;;;;;;;27.60;25.00;;;;;;;-1.77;100.00;103184.97;5251669;28;20099;-88
2022/01/11 05:56:38;;;;;;;30.27;21.40;;;;;;;-1.95;100.00;103179.25;5251009;28;20024;-88
2022/01/11 05:59:08;;;;;;;24.33;20.23;;;;;;;-2.29;100.00;103132.50;5251458;28;20025;-88
2022/01/11 06:01:39;;;;;;;27.38;24.42;;;;;;;-2.10;100.00;103170.69;5252604;28;20098;-87
2022/01/11 06:04:09;;;;;;;24.15;21.73;;;;;;;-2.19;100.00;103168.75;5252426;28;20020;-86
2022/01/11 06:06:40;;;;;;;23.77;21.55;;;;;;;-2.18;100.00;103177.53;5250473;28;20548;-87
2022/01/11 06:09:10;;;;;;;21.33;19.60;;;;;;;-2.40;100.00;103151.84;5251153;28;20039;-87
2022/01/11 06:11:41;;;;;;;21.60;19.60;;;;;;;-2.35;100.00;103157.63;5251284;28;20020;-86
2022/01/11 06:14:11;;;;;;;23.05;20.80;;;;;;;-2.65;100.00;103126.38;5250771;28;20027;-88
2022/01/11 06:16:41;;;;;;;23.77;21.65;;;;;;;-2.59;100.00;103136.47;5252294;28;20052;-86
2022/01/11 06:19:12;;;;;;;21.08;19.42;;;;;;;-2.39;100.00;103178.19;5252941;28;20047;-87
2022/01/11 06:21:42;;;;;;;27.10;24.30;;;;;;;-2.39;100.00;103182.63;5256620;28;20024;-88
2022/01/11 06:24:13;;;;;;;24.08;20.42;;;;;;;-2.87;100.00;103113.03;5257047;28;20025;-87
2022/01/11 06:26:44;;;;;;;22.92;20.80;;;;;;;-2.21;100.00;103220.09;5259604;28;20095;-87
2022/01/11 06:29:14;;;;;;;23.98;22.02;;;;;;;-2.30;100.00;103192.50;5257162;28;20024;-86
2022/01/11 06:31:45;;;;;;;24.60;22.08;;;;;;;-2.72;100.00;103141.84;5256195;28;20154;-87
2022/01/11 06:34:15;;;;;;;23.70;21.92;;;;;;;-2.91;100.00;103108.97;5255904;28;20032;-87
2022/01/11 06:36:45;;;;;;;25.20;22.98;;;;;;;-2.75;100.00;103147.38;5252180;28;20098;-88
2022/01/11 06:39:16;;;;;;;38.17;23.30;;;;;;;-2.67;100.00;103157.38;5252404;28;20084;-87
2022/01/11 06:41:46;;;;;;;21.52;19.73;;;;;;;-2.66;100.00;103161.72;5252591;28;20400;-87
2022/01/11 06:44:17;;;;;;;26.40;23.27;;;;;;;-2.16;100.00;103237.34;5250700;28;20038;-86
2022/01/11 06:46:47;;;;;;;24.80;22.48;;;;;;;-2.74;100.00;103143.78;5252199;28;20030;-87
2022/01/11 06:49:18;;;;;;;26.13;23.42;;;;;;;-2.55;100.00;103177.63;5252608;28;20591;-87
2022/01/11 06:51:48;;;;;;;46.58;43.22;;;;;;;-2.52;100.00;103171.25;5254638;28;20241;-86
2022/01/11 06:54:19;;;;;;;25.27;23.27;;;;;;;-2.72;100.00;103138.38;5252223;28;20029;-87
2022/01/11 06:56:49;;;;;;;28.90;23.63;;;;;;;-2.46;100.00;103176.09;5253153;28;20537;-88
2022/01/11 06:59:20;;;;;;;27.65;25.20;;;;;;;-2.19;100.00;103219.03;5252735;28;20024;-87
2022/01/11 07:01:50;;;;;;;23.70;21.52;;;;;;;-2.46;100.00;103176.09;5249975;28;20501;-87
2022/01/11 07:04:21;;;;;;;22.13;20.33;;;;;;;-2.39;100.00;103185.28;5251976;28;20035;-88
2022/01/11 07:06:51;;;;;;;25.17;22.70;;;;;;;-2.29;100.00;103193.34;5252666;28;20025;-87
2022/01/11 07:09:22;;;;;;;25.90;22.77;;;;;;;-2.39;100.00;103172.06;5252680;28;20032;-87
2022/01/11 07:11:52;;;;;;;26.08;23.90;;;;;;;-2.39;100.00;103158.81;5251482;28;20021;-88
2022/01/11 07:14:23;;;;;;;24.83;22.77;;;;;;;-2.03;100.00;103212.59;5253267;28;20115;-87
2022/01/11 07:16:53;;;;;;;24.20;21.70;;;;;;;-1.97;100.00;103212.13;5251926;28;20461;-88
2022/01/11 07:19:24;;;;;;;28.30;23.48;;;;;;;-1.75;100.00;103238.69;5268744;28;20040;-87
2022/01/11 07:21:55;;;;;;;25.52;23.33;;;;;;;-2.01;100.00;103197.41;5253581;28;20084;-87
2022/01/11 07:24:26;;;;;;;22.77;20.98;;;;;;;-1.69;100.00;103262.03;5253021;28;20028;-88
2022/01/11 07:26:56;;;;;;;24.40;22.10;;;;;;;-1.81;100.00;103239.13;5252397;28;20025;-87
2022/01/11 07:29:27;;;;;;;22.75;20.73;;;;;;;-2.06;100.00;103188.03;5251754;28;20028;-88
2022/01/11 07:31:57;;;;;;;22.25;20.42;;;;;;;-2.29;100.00;103154.50;5253923;28;20043;-86
2022/01/11 07:34:28;;;;;;;20.83;18.88;;;;;;;-1.62;100.00;103244.69;5253699;28;20020;-87
2022/01/11 07:36:58;;;;;;;22.98;20.98;;;;;;;-1.99;100.00;103192.84;5253914;28;20028;-87
2022/01/11 07:39:29;;;;;;;24.80;22.60;;;;;;;-1.66;100.00;103245.91;5261448;28;20012;-85
2022/01/11 07:41:59;;;;;;;21.67;19.98;;;;;;;-1.53;100.00;103267.84;5269257;28;20024;-86
2022/01/11 07:44:29;;;;;;;22.90;20.73;;;;;;;-1.40;100.00;103286.28;5252858;28;20070;-87
2022/01/11 07:47:02;;;;;;;25.52;23.35;;;;;;;-1.39;100.00;103304.72;5252263;28;20463;-87
2022/01/11 07:49:33;;;;;;;25.00;22.45;;;;;;;-1.66;100.00;103251.19;5252493;28;20020;-86
2022/01/11 07:52:03;;;;;;;24.25;21.90;;;;;;;-1.81;100.00;103229.38;5250167;28;20023;-87
2022/01/11 07:54:34;;;;;;;24.73;22.40;;;;;;;-1.70;100.00;103245.28;5250792;28;20482;-87
2022/01/11 07:57:04;;;;;;;21.15;19.42;;;;;;;-1.68;100.00;103231.91;5246707;28;20025;-87
2022/01/11 07:59:34;;;;;;;24.05;21.58;;;;;;;-1.53;100.00;103270.50;5250449;28;20021;-87
2022/01/11 08:02:05;;;;;;;21.23;19.30;;;;;;;-1.78;100.00;103220.38;5251717;28;20107;-87
2022/01/11 08:04:35;;;;;;;26.35;22.50;;;;;;;-1.51;100.00;103252.69;5252163;28;20031;-86
2022/01/11 08:07:06;;;;;;;23.15;21.35;;;;;;;-1.44;100.00;103255.69;5250853;28;20107;-87
2022/01/11 08:09:36;;;;;;;23.63;21.42;;;;;;;-1.14;100.00;103300.16;5251582;28;20024;-87
2022/01/11 08:12:07;;;;;;;24.85;22.52;;;;;;;-1.60;100.00;103216.28;5251640;28;20027;-87
2022/01/11 08:14:38;;;;;;;24.40;22.33;;;;;;;-1.26;100.00;103286.06;5249524;28;20039;-85
2022/01/11 08:17:08;;;;;;;25.40;22.55;;;;;;;-1.40;100.00;103239.44;5251395;28;20032;-86
2022/01/11 08:19:39;;;;;;;25.95;23.33;;;;;;;-1.30;100.00;103254.63;5249922;28;20457;-86
2022/01/11 08:22:09;;;;;;;20.63;18.52;;;;;;;-1.43;100.00;103237.00;5250269;28;20482;-87
2022/01/11 08:24:41;;;;;;;21.92;20.08;;;;;;;-1.44;100.00;103222.06;5251311;28;20444;-87
2022/01/11 08:27:12;;;;;;;20.83;18.92;;;;;;;-1.34;100.00;103226.66;5249525;28;20191;-87
2022/01/11 08:29:43;;;;;;;23.77;21.20;;;;;;;-1.47;100.00;103203.78;5252012;28;20029;-86
2022/01/11 08:32:14;;;;;;;22.95;20.55;;;;;;;-1.02;100.00;103272.69;5253802;28;20017;-87
2022/01/11 08:34:44;;;;;;;23.08;20.88;;;;;;;-1.01;100.00;103261.13;5254972;28;20402;-86
2022/01/11 08:37:15;;;;;;;22.75;20.67;;;;;;;-0.92;100.00;103263.06;5254912;28;20021;-86
2022/01/11 08:39:45;;;;;;;24.27;19.92;;;;;;;-0.93;100.00;103269.34;5254544;28;20036;-86
2022/01/11 08:42:16;;;;;;;22.02;20.10;;;;;;;-0.73;100.00;103299.56;5254005;28;20098;-86
2022/01/11 08:44:49;;;;;;;24.92;21.95;;;;;;;-0.94;100.00;103266.81;5252797;28;20032;-86
2022/01/11 08:47:20;;;;;;;22.15;19.98;;;;;;;-0.48;100.00;103317.03;5254149;28;20088;-86
2022/01/11 08:49:51;;;;;;;21.45;19.40;;;;;;;-0.54;100.00;103306.91;5254199;28;20447;-86
2022/01/11 08:52:21;;;;;;;19.75;18.15;;;;;;;-0.81;100.00;103257.72;5253154;28;20020;-86
2022/01/11 08:54:52;;;;;;;21.77;19.35;;;;;;;-0.42;100.00;103316.53;5253567;28;20095;-87
2022/01/11 08:57:23;;;;;;;22.02;18.90;;;;;;;-0.92;100.00;103235.69;5253873;28;20024;-86
2022/01/11 08:59:53;;;;;;;22.05;20.00;;;;;;;-0.35;100.00;103315.94;5252590;28;20070;-87
2022/01/11 09:02:23;;;;;;;18.13;16.58;;;;;;;-0.44;100.00;103286.63;5253943;28;20032;-87
2022/01/11 09:04:54;;;;;;;23.13;19.05;;;;;;;-0.61;100.00;103258.81;5254297;28;20016;-86
2022/01/11 09:07:24;;;;;;;19.27;17.75;;;;;;;-0.22;100.00;103318.41;5254578;28;20037;-87
2022/01/11 09:09:55;;;;;;;21.67;19.58;;;;;;;-0.58;100.00;103247.09;5253466;28;20114;-86
2022/01/11 09:12:26;;;;;;;19.38;17.85;;;;;;;-0.43;100.00;103270.56;5255165;28;20508;-86
2022/01/11 09:14:56;;;;;;;21.73;18.25;;;;;;;-0.02;100.00;103333.59;5254072;28;20024;-86
2022/01/11 09:17:27;;;;;;;19.92;17.95;;;;;;;0.03;100.00;103338.50;5253247;28;20158;-87
2022/01/11 09:19:57;;;;;;;18.15;16.42;;;;;;;0.07;100.00;103331.97;5253850;28;20029;-86
2022/01/11 09:22:28;;;;;;;19.25;17.58;;;;;;;0.13;100.00;103338.59;5253069;28;20119;-86
2022/01/11 09:24:59;;;;;;;18.58;16.92;;;;;;;0.11;100.00;103332.56;5252856;28;20021;-88
2022/01/11 09:27:29;;;;;;;21.75;19.77;;;;;;;-0.60;100.00;103201.28;5275686;22;20406;-86
2022/01/11 09:30:00;;;;;;;19.35;17.85;;;;;;;-0.51;100.00;103222.56;5249515;28;20021;-86
2022/01/11 09:32:30;;;;;;;17.13;15.73;;;;;;;0.23;100.00;103340.38;5231282;28;20078;-84
2022/01/11 09:35:03;;;;;;;18.80;16.95;;;;;;;-0.27;100.00;103250.72;5231614;28;20025;-85
2022/01/11 09:37:33;;;;;;;18.30;16.92;;;;;;;-0.26;100.00;103247.09;5231543;28;20035;-87
2022/01/11 09:40:06;;;;;;;19.77;17.85;;;;;;;0.33;100.00;103337.75;5232659;28;20304;-86
2022/01/11 09:42:38;;;;;;;20.15;17.92;;;;;;;0.20;100.00;103313.19;5230929;28;20047;-86
2022/01/11 09:45:11;;;;;;;16.50;15.25;;;;;;;0.22;100.00;103330.72;5230285;28;20021;-86
2022/01/11 09:50:15;;;;;;;21.65;19.58;;;;;;;0.29;100.00;103315.06;5208908;28;20053;-85
2022/01/11 09:55:26;;;;;;;;;;;;;;;0.63;100.00;103348.47;3573124;26;20040;-57
2022/01/11 09:57:57;;;;;;;18.00;15.90;;;;;;;0.70;100.00;103347.97;5248016;28;20174;-59
2022/01/11 10:04:16;;;;;;;17.42;15.90;;;;;;;0.84;100.00;103337.00;5228542;28;20048;-58
2022/01/11 10:10:19;;;;;;;17.92;16.48;;;;;;;0.89;100.00;103335.63;5227577;28;20071;-58
2022/01/11 10:12:52;;;;;;;18.73;16.10;;;;;;;0.92;100.00;103337.19;5226972;28;20033;-57
2022/01/11 10:15:32;;;;;;;16.85;15.32;;;;;;;1.00;100.00;103340.03;5227240;28;20021;-58
2022/01/11 10:18:03;;;;;;;17.97;15.53;;;;;;;1.06;100.00;103350.16;5227157;28;20118;-57
2022/01/11 10:20:35;;;;;;;16.42;14.80;;;;;;;1.06;100.00;103351.97;5226692;28;20025;-56
2022/01/11 10:23:07;;;;;;;16.77;14.85;;;;;;;0.83;100.00;103319.38;5226859;28;20025;-58
2022/01/11 10:29:42;;;;;;;15.88;14.60;;;;;;;1.08;100.00;103350.03;5243393;28;20553;-58
2022/01/11 10:32:14;;;;;;;14.02;12.77;;;;;;;1.09;100.00;103351.69;5227334;28;20029;-59
2022/01/11 10:34:48;;;;;;;18.70;16.77;;;;;;;1.10;100.00;103356.91;5226838;28;20029;-63
2022/01/11 10:37:35;;;;;;;21.23;14.50;;;;;;;1.04;100.00;103344.13;5226765;28;20028;-59
2022/01/11 10:40:11;;;;;;;15.93;14.57;;;;;;;1.10;100.00;103350.72;5236896;28;20119;-59
2022/01/11 10:43:22;;;;;;;17.65;16.02;;;;;;;1.13;100.00;103367.28;5247733;28;20037;-59
2022/01/11 10:45:58;;;;;;;16.13;14.80;;;;;;;1.16;100.00;103366.97;5247194;28;20032;-59
2022/01/11 10:48:36;;;;;;;19.15;14.15;;;;;;;1.17;100.00;103362.50;5247080;28;20090;-59
2022/01/11 10:51:16;;;;;;;17.63;16.17;;;;;;;1.22;100.00;103357.63;5247275;28;20093;-59
2022/01/11 10:53:49;;;;;;;16.42;14.85;;;;;;;1.28;100.00;103357.94;5246875;28;20489;-59
2022/01/11 10:56:19;;;;;;;16.48;14.73;;;;;;;1.34;100.00;103365.41;5247281;28;20067;-59
2022/01/11 10:59:24;;;;;;;17.60;14.90;;;;;;;1.42;100.00;103367.41;5247206;28;20315;-59
2022/01/11 11:01:54;;;;;;;15.57;13.93;;;;;;;1.48;100.00;103356.19;5247010;28;20173;-59
2022/01/11 11:04:32;;;;;;;16.13;14.43;;;;;;;1.50;100.00;103353.41;5246982;28;20103;-58
2022/01/11 11:07:13;;;;;;;17.05;15.38;;;;;;;1.57;100.00;103359.88;5247227;28;20043;-59
2022/01/11 11:09:53;;;;;;;15.68;14.18;;;;;;;1.62;100.00;103360.31;5247236;28;20388;-59
2022/01/11 11:12:23;;;;;;;14.30;13.18;;;;;;;1.62;100.00;103350.50;5246546;28;20024;-58
2022/01/11 11:17:43;;;;;;;17.45;15.60;;;;;;;1.80;100.00;103366.66;5244714;28;20048;-60
2022/01/11 11:20:14;;;;;;;14.15;13.10;;;;;;;1.86;100.00;103367.94;5230271;28;20020;-58
2022/01/11 11:22:45;;;;;;;17.88;13.10;;;;;;;1.93;100.00;103375.25;5230755;28;20059;-60
2022/01/11 11:32:10;;;;;;;14.57;13.38;;;;;;;2.17;100.00;103374.00;5488080;22;20049;-85
2022/01/11 11:34:40;;;;;;;14.68;13.15;;;;;;;2.09;100.00;103333.88;5223440;28;20393;-85
2022/01/11 11:37:14;;;;;;;15.35;14.13;;;;;;;2.29;100.00;103346.25;5234681;28;20029;-85
2022/01/11 11:39:46;;;;;;;15.88;13.00;;;;;;;2.42;100.00;103356.63;5233063;28;20057;-85
2022/01/11 11:42:19;;;;;;;14.45;13.18;;;;;;;2.33;100.00;103315.63;5213487;28;20026;-84
2022/01/11 11:44:49;;;;;;;14.75;13.45;;;;;;;2.38;100.00;103319.56;5196959;28;20032;-84
2022/01/11 11:47:30;;;;;;;15.52;13.98;;;;;;;2.73;100.00;103350.13;5196030;28;20033;-85
2022/01/11 11:50:05;;;;;;;14.43;13.07;;;;;;;2.64;100.00;103332.28;5213536;28;20469;-84
2022/01/11 11:52:48;;;;;;;13.52;12.43;;;;;;;2.63;100.00;103314.59;5214256;28;20024;-85
2022/01/11 11:55:29;;;;;;;15.70;13.70;;;;;;;2.91;100.00;103351.06;5213672;28;20035;-85
2022/01/11 11:58:05;;;;;;;16.10;14.60;;;;;;;2.82;100.00;103327.91;5214158;28;20031;-84
2022/01/11 12:00:42;;;;;;;14.23;12.93;;;;;;;2.91;100.00;103347.53;5214455;28;20125;-85